createdAt,value
2023-04-20T00:02:23.358Z,17.45
2023-04-20T00:04:55.733Z,17.25
2023-04-20T00:07:27.420Z,18.55
2023-04-20T00:09:57.022Z,17.35
2023-04-20T00:12:26.495Z,20.48
2023-04-20T00:14:57.374Z,14.77
2023-04-20T00:17:26.861Z,18.58
2023-04-20T00:19:56.510Z,14.77
2023-04-20T00:22:28.222Z,19.58
2023-04-20T00:24:57.868Z,15.82
2023-04-20T00:27:27.324Z,18.42
2023-04-20T00:29:58.123Z,17.65
2023-04-20T00:32:28.441Z,19.77
2023-04-20T00:34:58.310Z,21.90
2023-04-20T00:37:28.534Z,18.52
2023-04-20T00:39:59.482Z,19.45
2023-04-20T00:42:28.975Z,21.08
2023-04-20T00:44:59.882Z,19.33
2023-04-20T00:47:29.379Z,21.85
2023-04-20T00:49:58.972Z,24.52
2023-04-20T00:52:28.923Z,22.73
2023-04-20T00:55:01.063Z,20.83
2023-04-20T00:57:31.235Z,19.50
2023-04-20T01:00:07.824Z,21.50
2023-04-20T01:02:37.521Z,20.58
2023-04-20T01:05:10.698Z,20.30
2023-04-20T01:07:40.172Z,22.08
2023-04-20T01:10:11.392Z,22.00
2023-04-20T01:12:42.750Z,24.45
2023-04-20T01:15:14.514Z,25.52
2023-04-20T01:17:47.984Z,23.75
2023-04-20T01:20:17.556Z,24.17
2023-04-20T01:22:50.922Z,24.52
2023-04-20T01:25:20.590Z,26.35
2023-04-20T01:27:50.113Z,25.40
2023-04-20T01:30:19.542Z,27.08
2023-04-20T01:32:49.267Z,27.42
2023-04-20T01:35:18.782Z,24.73
2023-04-20T01:37:49.634Z,31.52
2023-04-20T01:40:19.203Z,29.77
2023-04-20T01:42:48.683Z,28.65
2023-04-20T01:45:18.301Z,26.17
2023-04-20T01:47:47.792Z,27.08
2023-04-20T01:50:17.359Z,24.60
2023-04-20T01:52:46.837Z,26.70
2023-04-20T01:55:20.026Z,26.83
2023-04-20T01:57:49.782Z,28.95
2023-04-20T02:00:20.993Z,30.42
2023-04-20T02:02:50.686Z,30.88
2023-04-20T02:05:20.308Z,29.73
2023-04-20T02:07:49.721Z,27.20
2023-04-20T02:10:20.822Z,28.45
2023-04-20T02:12:51.272Z,27.80
2023-04-20T02:15:20.699Z,28.67
2023-04-20T02:17:52.182Z,30.23
2023-04-20T02:20:22.474Z,27.48
2023-04-20T02:22:51.915Z,32.20
2023-04-20T02:25:22.812Z,30.63
2023-04-20T02:27:52.261Z,32.20
2023-04-20T02:30:22.469Z,31.45
2023-04-20T02:32:51.983Z,31.63
2023-04-20T02:35:21.642Z,30.42
2023-04-20T02:37:51.320Z,30.65
2023-04-20T02:40:22.403Z,28.38
2023-04-20T02:42:51.886Z,30.60
2023-04-20T02:45:21.826Z,33.88
2023-04-20T02:47:51.536Z,30.65
2023-04-20T02:50:21.592Z,30.23
2023-04-20T02:53:05.733Z,31.75
2023-04-20T02:55:38.982Z,31.73
2023-04-20T02:58:20.215Z,30.17
2023-04-20T13:36:15.840Z,7.85
2023-04-20T13:38:45.651Z,8.85
2023-04-20T13:41:15.199Z,8.25
2023-04-20T13:43:45.339Z,8.43
2023-04-20T13:46:15.807Z,9.52
2023-04-20T13:48:45.367Z,9.05
2023-04-20T13:51:16.301Z,8.73
2023-04-20T13:53:47.945Z,9.23
2023-04-20T13:56:17.834Z,9.32
2023-04-20T13:58:47.469Z,9.48
2023-04-20T14:01:17.396Z,11.35
2023-04-20T14:03:48.446Z,11.35
2023-04-20T14:06:19.580Z,10.50
2023-04-20T14:08:49.438Z,11.90
2023-04-20T14:11:18.859Z,12.20
2023-04-20T14:13:48.526Z,12.73
2023-04-20T14:16:18.027Z,11.18
2023-04-20T14:18:47.540Z,12.73
2023-04-20T14:21:17.206Z,12.98
2023-04-20T14:23:53.172Z,12.55
2023-04-20T14:26:22.772Z,14.55
2023-04-20T14:28:53.138Z,10.93
2023-04-20T14:31:22.666Z,12.43
2023-04-20T14:33:52.144Z,11.20
2023-04-20T14:36:21.763Z,15.30
2023-04-20T14:38:54.280Z,11.85
2023-04-20T14:41:26.905Z,17.60
2023-04-20T14:43:56.439Z,11.10
2023-04-20T14:46:25.938Z,13.13
2023-04-20T14:48:55.456Z,14.68
2023-04-20T14:51:24.970Z,11.48
2023-04-20T14:53:56.099Z,14.88
2023-04-20T14:56:25.667Z,14.27
2023-04-20T14:58:57.146Z,13.20
2023-04-20T15:01:26.771Z,17.10
2023-04-20T15:03:56.707Z,15.10
2023-04-20T15:06:26.990Z,11.98
2023-04-20T15:08:58.331Z,17.45
2023-04-20T15:11:27.774Z,16.25
2023-04-20T15:13:57.202Z,13.68
2023-04-20T15:16:26.769Z,13.30
2023-04-20T15:18:56.359Z,14.65
2023-04-20T15:21:27.059Z,14.75
2023-04-20T15:23:57.801Z,15.68
2023-04-20T15:26:27.385Z,14.38
2023-04-20T15:28:57.585Z,15.63
2023-04-20T15:31:27.835Z,17.17
2023-04-20T15:33:59.048Z,13.50
2023-04-20T15:36:28.826Z,14.38
2023-04-20T15:38:59.705Z,13.60
2023-04-20T15:41:29.193Z,15.25
2023-04-20T15:43:58.685Z,15.00
2023-04-20T15:46:28.494Z,16.48
2023-04-20T15:48:58.161Z,20.15
2023-04-20T15:51:28.017Z,17.65
2023-04-20T15:53:58.981Z,20.38
2023-04-20T15:56:28.578Z,18.30
2023-04-20T15:58:58.107Z,16.08
2023-04-20T16:01:27.736Z,16.42
2023-04-20T16:03:57.647Z,16.00
2023-04-20T16:06:27.473Z,14.45
2023-04-20T16:08:57.684Z,14.90
2023-04-20T16:11:28.516Z,14.80
2023-04-20T16:13:58.888Z,17.65
2023-04-20T16:16:28.618Z,15.07
2023-04-20T16:18:58.237Z,18.05
2023-04-20T16:21:27.933Z,15.75
2023-04-20T16:23:58.054Z,17.15
2023-04-20T16:26:29.016Z,15.95
2023-04-20T16:28:58.639Z,16.15
2023-04-20T16:31:29.644Z,19.35
2023-04-20T16:34:00.151Z,17.40
2023-04-20T16:36:30.018Z,20.38
2023-04-20T16:39:01.761Z,15.23
2023-04-20T16:41:32.772Z,17.90
2023-04-20T16:44:02.318Z,18.02
2023-04-20T16:46:32.103Z,16.95
2023-04-20T16:49:01.673Z,18.42
2023-04-20T16:51:31.417Z,17.45
2023-04-20T16:54:01.497Z,19.80
2023-04-20T16:56:32.560Z,19.58
2023-04-20T16:59:02.064Z,17.90
2023-04-20T17:01:32.036Z,21.77
2023-04-20T17:04:02.029Z,20.13
2023-04-20T17:06:32.004Z,17.60
2023-04-20T17:09:06.720Z,21.38
2023-04-20T17:11:39.568Z,19.73
2023-04-20T17:14:09.989Z,19.90
2023-04-20T17:16:39.733Z,20.23
2023-04-20T17:19:09.298Z,17.45
2023-04-20T17:21:40.420Z,19.52
2023-04-20T17:24:09.987Z,16.63
2023-04-20T17:26:40.823Z,21.48
2023-04-20T17:29:10.318Z,20.98
2023-04-20T17:31:39.863Z,20.60
2023-04-20T17:34:10.495Z,19.35
2023-04-20T17:36:40.159Z,19.15
2023-04-20T17:39:10.245Z,18.63
2023-04-20T17:41:41.186Z,20.42
2023-04-20T17:44:12.191Z,19.70
2023-04-20T17:46:42.096Z,19.90
2023-04-20T17:49:11.656Z,22.23
2023-04-20T17:51:41.117Z,20.73
2023-04-20T17:54:11.398Z,24.50
2023-04-20T17:56:42.376Z,20.77
2023-04-20T17:59:12.780Z,22.95
2023-04-20T18:01:42.498Z,18.48
2023-04-20T18:04:12.515Z,18.10
2023-04-20T18:06:42.098Z,17.63
2023-04-20T18:09:14.011Z,17.65
2023-04-20T18:11:44.891Z,17.58
2023-04-20T18:14:14.481Z,18.27
2023-04-20T18:16:43.902Z,19.55
2023-04-20T18:19:13.380Z,17.92
2023-04-20T18:21:43.140Z,18.70
2023-04-20T18:24:12.597Z,20.13
2023-04-20T18:26:42.129Z,16.98
2023-04-20T18:29:12.920Z,18.02
2023-04-20T18:31:45.319Z,16.00
2023-04-20T18:34:16.196Z,14.77
2023-04-20T18:36:45.880Z,19.60
2023-04-20T18:39:15.958Z,17.60
2023-04-20T18:41:45.651Z,18.08
2023-04-20T18:44:16.658Z,17.92
2023-04-20T18:46:46.403Z,20.90
2023-04-20T18:49:15.901Z,17.58
2023-04-20T18:51:45.335Z,20.15
2023-04-20T18:54:14.827Z,20.52
2023-04-20T18:56:44.375Z,22.55
2023-04-20T18:59:15.489Z,18.88
2023-04-20T19:01:45.008Z,22.55
2023-04-20T19:04:14.682Z,19.33
2023-04-20T19:06:44.308Z,21.77
2023-04-20T19:09:13.873Z,18.27
2023-04-20T19:11:44.663Z,18.85
2023-04-20T19:14:15.590Z,20.88
2023-04-20T19:16:45.250Z,18.65
2023-04-20T19:19:14.979Z,17.40
2023-04-20T19:21:44.558Z,19.63
2023-04-20T19:24:14.214Z,17.77
2023-04-20T19:26:44.160Z,22.83
2023-04-20T19:29:15.036Z,20.02
2023-04-20T19:31:44.876Z,20.52
2023-04-20T19:34:15.197Z,19.70
2023-04-20T19:36:44.801Z,22.20
2023-04-20T19:39:14.819Z,18.67
2023-04-20T19:41:45.390Z,21.20
2023-04-20T19:44:16.335Z,19.17
2023-04-20T19:46:46.017Z,17.73
2023-04-20T19:49:15.660Z,20.13
2023-04-20T19:51:45.276Z,18.05
2023-04-20T19:54:16.625Z,21.48
2023-04-20T19:56:46.175Z,20.73
2023-04-20T19:59:17.264Z,19.45
2023-04-20T20:01:48.830Z,20.73
2023-04-20T20:04:20.461Z,19.95
2023-04-20T20:06:50.760Z,22.98
2023-04-20T20:09:23.208Z,24.90
2023-04-20T20:14:24.659Z,19.42
2023-04-20T20:16:54.357Z,19.83
2023-04-20T20:19:23.959Z,19.67
2023-04-20T20:21:53.625Z,21.40
2023-04-20T20:24:25.155Z,20.67
2023-04-20T20:26:54.645Z,20.33
2023-04-20T20:29:25.632Z,22.35
2023-04-20T20:31:55.637Z,22.80
2023-04-20T20:34:25.151Z,23.33
2023-04-20T20:36:54.624Z,23.50
2023-04-20T20:39:24.185Z,21.48
2023-04-20T20:41:53.995Z,21.25
2023-04-20T20:44:27.902Z,21.23
2023-04-20T20:46:57.492Z,23.90
2023-04-20T20:49:27.248Z,23.92
2023-04-20T20:51:56.707Z,24.27
2023-04-20T20:54:26.335Z,23.92
2023-04-20T20:56:55.968Z,25.05
2023-04-20T20:59:26.769Z,23.23
2023-04-20T21:01:56.242Z,23.15
2023-04-20T21:04:25.860Z,24.58
2023-04-20T21:06:55.457Z,25.08
2023-04-20T21:09:24.848Z,22.77
2023-04-20T21:11:56.434Z,26.02
2023-04-20T21:14:27.423Z,25.45
2023-04-20T21:16:57.051Z,26.33
2023-04-20T21:19:26.748Z,21.77
2023-04-20T21:21:56.217Z,22.50
2023-04-20T21:24:26.471Z,26.95
2023-04-20T21:26:56.468Z,25.98
2023-04-20T21:29:27.409Z,28.30
2023-04-20T21:31:56.933Z,24.25
2023-04-20T21:34:27.008Z,22.92
2023-04-20T21:37:03.352Z,25.00
2023-04-20T21:39:33.363Z,26.13
2023-04-20T21:42:03.358Z,27.95
2023-04-20T21:44:34.171Z,27.25
2023-04-20T21:47:03.606Z,24.45
2023-04-20T21:49:33.105Z,25.30
2023-04-20T21:52:02.567Z,23.85
2023-04-20T21:54:34.524Z,26.40
2023-04-20T21:57:04.530Z,27.48
2023-04-20T21:59:35.536Z,25.88
2023-04-20T22:02:05.361Z,24.35
2023-04-20T22:04:35.030Z,26.77
2023-04-20T22:07:04.690Z,23.90
2023-04-20T22:09:34.165Z,24.00
2023-04-20T22:12:05.152Z,28.05
2023-04-20T22:14:36.123Z,26.08
2023-04-20T22:17:05.597Z,26.00
2023-04-20T22:19:35.029Z,26.02
2023-04-20T22:22:04.573Z,27.38
2023-04-20T22:24:34.376Z,27.48
2023-04-20T22:27:04.725Z,25.65
2023-04-20T22:29:35.697Z,24.73
2023-04-20T22:32:05.578Z,26.02
2023-04-20T22:34:49.420Z,28.55
2023-04-20T22:37:19.797Z,27.55
2023-04-20T22:39:49.229Z,25.13
2023-04-20T22:42:18.717Z,26.67
2023-04-20T22:44:49.605Z,25.75
2023-04-20T22:47:19.118Z,26.83
2023-04-20T22:49:49.047Z,25.83
2023-04-20T22:52:18.486Z,24.20
2023-04-20T22:54:48.843Z,26.08
2023-04-20T22:57:19.223Z,26.58
2023-04-20T22:59:50.040Z,25.90
2023-04-20T23:02:19.581Z,27.88
2023-04-20T23:04:49.140Z,26.75
2023-04-20T23:07:19.507Z,26.95
2023-04-20T23:09:49.194Z,29.55
2023-04-20T23:12:20.700Z,26.85
2023-04-20T23:14:51.616Z,23.77
2023-04-20T23:17:21.129Z,25.30
2023-04-20T23:19:50.981Z,24.00
2023-04-20T23:22:20.668Z,26.17
2023-04-20T23:24:50.095Z,23.65
2023-04-20T23:27:19.529Z,23.92
2023-04-20T23:29:50.372Z,22.05
2023-04-20T23:32:19.907Z,21.90
2023-04-20T23:34:49.326Z,23.67
2023-04-20T23:37:18.971Z,22.38
2023-04-20T23:39:48.410Z,22.63
2023-04-20T23:42:17.874Z,23.80
2023-04-20T23:44:47.441Z,22.27
2023-04-20T23:47:18.240Z,24.95
2023-04-20T23:49:47.779Z,26.60
2023-04-20T23:52:17.427Z,27.45
2023-04-20T23:54:46.955Z,23.48
2023-04-20T23:57:16.517Z,23.92
2023-04-20T23:59:46.260Z,26.50
